sensor_id;sensor_type;location;lat;lon;timestamp;pressure;altitude;pressure_sealevel;temperature;humidity
31761;BME280;18335;51.486;7.562;2023-04-06T00:00:22;100459.63;;;0.64;100.00
31761;BME280;18335;51.486;7.562;2023-04-06T00:02:50;100460.41;;;0.66;100.00
31761;BME280;18335;51.486;7.562;2023-04-06T00:05:18;100455.81;;;0.68;100.00
31761;BME280;18335;51.486;7.562;2023-04-06T00:07:45;100459.44;;;0.67;100.00
31761;BME280;18335;51.486;7.562;2023-04-06T00:10:12;100458.09;;;0.60;100.00
31761;BME280;18335;51.486;7.562;2023-04-06T00:12:38;100459.38;;;0.69;100.00
31761;BME280;18335;51.486;7.562;2023-04-06T00:15:06;100456.56;;;0.70;100.00
31761;BME280;18335;51.486;7.562;2023-04-06T00:17:33;100462.16;;;0.53;100.00
31761;BME280;18335;51.486;7.562;2023-04-06T00:20:02;100453.88;;;0.70;100.00
31761;BME280;18335;51.486;7.562;2023-04-06T00:22:28;100452.22;;;0.82;100.00
31761;BME280;18335;51.486;7.562;2023-04-06T00:24:55;100450.28;;;0.84;100.00
31761;BME280;18335;51.486;7.562;2023-04-06T00:27:22;100443.69;;;0.89;100.00
31761;BME280;18335;51.486;7.562;2023-04-06T00:29:49;100444.13;;;0.96;100.00
31761;BME280;18335;51.486;7.562;2023-04-06T00:32:17;100444.59;;;1.02;100.00
31761;BME280;18335;51.486;7.562;2023-04-06T00:34:43;100436.25;;;1.07;100.00
31761;BME280;18335;51.486;7.562;2023-04-06T00:37:12;100437.59;;;1.00;100.00
31761;BME280;18335;51.486;7.562;2023-04-06T00:39:39;100436.19;;;0.94;100.00
31761;BME280;18335;51.486;7.562;2023-04-06T00:42:11;100430.81;;;0.94;100.00
31761;BME280;18335;51.486;7.562;2023-04-06T00:44:39;100432.34;;;0.98;100.00
31761;BME280;18335;51.486;7.562;2023-04-06T00:47:06;100425.16;;;0.85;100.00
31761;BME280;18335;51.486;7.562;2023-04-06T00:49:34;100420.66;;;0.85;100.00
31761;BME280;18335;51.486;7.562;2023-04-06T00:52:01;100417.38;;;0.94;100.00
31761;BME280;18335;51.486;7.562;2023-04-06T00:54:29;100420.25;;;0.91;100.00
31761;BME280;18335;51.486;7.562;2023-04-06T00:56:58;100415.75;;;0.92;100.00
31761;BME280;18335;51.486;7.562;2023-04-06T00:59:27;100411.25;;;0.92;100.00
31761;BME280;18335;51.486;7.562;2023-04-06T01:01:55;100402.81;;;0.84;100.00
31761;BME280;18335;51.486;7.562;2023-04-06T01:04:37;100407.50;;;0.95;100.00
31761;BME280;18335;51.486;7.562;2023-04-06T01:07:09;100405.63;;;0.83;100.00
31761;BME280;18335;51.486;7.562;2023-04-06T01:09:45;100404.56;;;0.85;100.00
31761;BME280;18335;51.486;7.562;2023-04-06T01:12:18;100393.41;;;0.91;100.00
31761;BME280;18335;51.486;7.562;2023-04-06T01:14:46;100392.34;;;0.94;100.00
31761;BME280;18335;51.486;7.562;2023-04-06T01:17:13;100380.31;;;0.99;100.00
31761;BME280;18335;51.486;7.562;2023-04-06T01:19:41;100383.06;;;1.12;100.00
31761;BME280;18335;51.486;7.562;2023-04-06T01:22:15;100386.59;;;1.13;100.00
31761;BME280;18335;51.486;7.562;2023-04-06T01:24:54;100378.78;;;1.22;100.00
31761;BME280;18335;51.486;7.562;2023-04-06T01:27:31;100383.19;;;1.23;100.00
31761;BME280;18335;51.486;7.562;2023-04-06T01:30:10;100377.72;;;1.25;100.00
31761;BME280;18335;51.486;7.562;2023-04-06T01:32:45;100373.84;;;1.29;100.00
31761;BME280;18335;51.486;7.562;2023-04-06T01:35:15;100374.06;;;1.26;100.00
31761;BME280;18335;51.486;7.562;2023-04-06T01:37:53;100376.31;;;1.19;100.00
31761;BME280;18335;51.486;7.562;2023-04-06T01:40:27;100359.56;;;1.28;100.00
31761;BME280;18335;51.486;7.562;2023-04-06T01:42:54;100354.41;;;1.38;100.00
31761;BME280;18335;51.486;7.562;2023-04-06T01:45:29;100361.50;;;1.39;100.00
31761;BME280;18335;51.486;7.562;2023-04-06T01:48:03;100359.72;;;1.52;100.00
31761;BME280;18335;51.486;7.562;2023-04-06T01:50:29;100355.63;;;1.59;100.00
31761;BME280;18335;51.486;7.562;2023-04-06T01:52:58;100358.31;;;1.46;100.00
31761;BME280;18335;51.486;7.562;2023-04-06T01:55:27;100353.13;;;1.56;100.00
31761;BME280;18335;51.486;7.562;2023-04-06T01:58:26;100356.81;;;1.67;100.00
31761;BME280;18335;51.486;7.562;2023-04-06T02:00:53;100359.06;;;1.74;100.00
31761;BME280;18335;51.486;7.562;2023-04-06T02:03:20;100358.13;;;1.87;100.00
31761;BME280;18335;51.486;7.562;2023-04-06T02:05:51;100350.13;;;1.98;100.00
31761;BME280;18335;51.486;7.562;2023-04-06T02:08:31;100351.66;;;2.15;100.00
31761;BME280;18335;51.486;7.562;2023-04-06T02:10:58;100344.75;;;2.23;100.00
31761;BME280;18335;51.486;7.562;2023-04-06T02:13:31;100347.66;;;2.20;100.00
31761;BME280;18335;51.486;7.562;2023-04-06T02:15:58;100348.63;;;2.19;100.00
31761;BME280;18335;51.486;7.562;2023-04-06T02:18:26;100344.75;;;2.11;100.00
31761;BME280;18335;51.486;7.562;2023-04-06T02:20:54;100350.53;;;2.30;100.00
31761;BME280;18335;51.486;7.562;2023-04-06T02:23:21;100350.13;;;2.23;100.00
31761;BME280;18335;51.486;7.562;2023-04-06T02:25:49;100348.88;;;2.40;100.00
31761;BME280;18335;51.486;7.562;2023-04-06T02:28:16;100348.59;;;2.32;100.00
31761;BME280;18335;51.486;7.562;2023-04-06T02:30:42;100346.63;;;2.47;100.00
31761;BME280;18335;51.486;7.562;2023-04-06T02:33:10;100349.53;;;2.44;100.00
31761;BME280;18335;51.486;7.562;2023-04-06T02:35:41;100335.00;;;2.70;100.00
31761;BME280;18335;51.486;7.562;2023-04-06T02:38:08;100332.31;;;2.94;100.00
31761;BME280;18335;51.486;7.562;2023-04-06T02:40:35;100336.94;;;2.81;100.00
31761;BME280;18335;51.486;7.562;2023-04-06T02:43:14;100342.41;;;3.03;100.00
31761;BME280;18335;51.486;7.562;2023-04-06T02:45:43;100334.81;;;3.31;100.00
31761;BME280;18335;51.486;7.562;2023-04-06T02:48:11;100330.25;;;3.32;100.00
31761;BME280;18335;51.486;7.562;2023-04-06T02:50:37;100335.28;;;3.25;100.00
31761;BME280;18335;51.486;7.562;2023-04-06T02:53:06;100331.28;;;3.42;100.00
31761;BME280;18335;51.486;7.562;2023-04-06T02:55:35;100335.59;;;3.45;100.00
31761;BME280;18335;51.486;7.562;2023-04-06T02:58:01;100333.38;;;3.50;100.00
31761;BME280;18335;51.486;7.562;2023-04-06T03:00:37;100335.00;;;3.52;100.00
31761;BME280;18335;51.486;7.562;2023-04-06T03:03:04;100326.66;;;3.20;100.00
31761;BME280;18335;51.486;7.562;2023-04-06T03:05:31;100334.31;;;3.38;100.00
31761;BME280;18335;51.486;7.562;2023-04-06T03:07:58;100332.31;;;3.17;100.00
31761;BME280;18335;51.486;7.562;2023-04-06T03:10:40;100330.00;;;3.24;100.00
31761;BME280;18335;51.486;7.562;2023-04-06T03:13:07;100333.13;;;3.42;100.00
31761;BME280;18335;51.486;7.562;2023-04-06T03:16:04;100332.38;;;3.28;100.00
31761;BME280;18335;51.486;7.562;2023-04-06T03:18:32;100328.22;;;3.12;100.00
31761;BME280;18335;51.486;7.562;2023-04-06T03:20:58;100316.34;;;3.14;100.00
31761;BME280;18335;51.486;7.562;2023-04-06T03:23:42;100323.72;;;3.12;100.00
31761;BME280;18335;51.486;7.562;2023-04-06T03:26:10;100322.34;;;3.07;100.00
31761;BME280;18335;51.486;7.562;2023-04-06T03:28:36;100322.13;;;3.10;100.00
31761;BME280;18335;51.486;7.562;2023-04-06T03:31:06;100321.25;;;3.09;100.00
31761;BME280;18335;51.486;7.562;2023-04-06T03:33:47;100324.47;;;2.91;100.00
31761;BME280;18335;51.486;7.562;2023-04-06T03:36:30;100325.38;;;3.02;100.00
31761;BME280;18335;51.486;7.562;2023-04-06T03:38:58;100324.41;;;3.03;100.00
31761;BME280;18335;51.486;7.562;2023-04-06T03:41:25;100326.63;;;3.09;100.00
31761;BME280;18335;51.486;7.562;2023-04-06T03:43:58;100326.66;;;3.20;100.00
31761;BME280;18335;51.486;7.562;2023-04-06T03:46:27;100318.81;;;3.17;100.00
31761;BME280;18335;51.486;7.562;2023-04-06T03:48:56;100322.91;;;2.99;100.00
31761;BME280;18335;51.486;7.562;2023-04-06T03:51:23;100327.59;;;3.08;100.00
31761;BME280;18335;51.486;7.562;2023-04-06T03:53:50;100322.16;;;3.21;100.00
31761;BME280;18335;51.486;7.562;2023-04-06T03:56:17;100326.03;;;3.17;100.00
31761;BME280;18335;51.486;7.562;2023-04-06T03:58:46;100328.28;;;2.99;100.00
31761;BME280;18335;51.486;7.562;2023-04-06T04:01:16;100321.72;;;3.03;100.00
31761;BME280;18335;51.486;7.562;2023-04-06T04:03:44;100337.47;;;2.97;100.00
31761;BME280;18335;51.486;7.562;2023-04-06T04:06:13;100324.91;;;2.85;100.00
31761;BME280;18335;51.486;7.562;2023-04-06T04:08:40;100328.97;;;2.90;100.00
31761;BME280;18335;51.486;7.562;2023-04-06T04:11:07;100333.06;;;2.96;100.00
31761;BME280;18335;51.486;7.562;2023-04-06T04:13:34;100330.31;;;2.85;100.00
31761;BME280;18335;51.486;7.562;2023-04-06T04:16:04;100329.97;;;2.89;100.00
31761;BME280;18335;51.486;7.562;2023-04-06T04:18:30;100322.13;;;2.86;100.00
31761;BME280;18335;51.486;7.562;2023-04-06T04:20:59;100331.00;;;2.99;100.00
31761;BME280;18335;51.486;7.562;2023-04-06T04:23:26;100330.94;;;2.88;100.00
31761;BME280;18335;51.486;7.562;2023-04-06T04:25:52;100334.22;;;2.81;100.00
31761;BME280;18335;51.486;7.562;2023-04-06T04:28:19;100330.94;;;2.88;100.00
31761;BME280;18335;51.486;7.562;2023-04-06T04:30:46;100333.78;;;2.87;100.00
31761;BME280;18335;51.486;7.562;2023-04-06T04:33:14;100328.16;;;2.90;100.00
31761;BME280;18335;51.486;7.562;2023-04-06T04:35:42;100323.59;;;2.90;100.00
31761;BME280;18335;51.486;7.562;2023-04-06T04:38:13;100327.16;;;2.91;100.00
31761;BME280;18335;51.486;7.562;2023-04-06T04:40:42;100325.28;;;3.04;100.00
31761;BME280;18335;51.486;7.562;2023-04-06T04:43:10;100326.59;;;2.98;100.00
31761;BME280;18335;51.486;7.562;2023-04-06T04:45:38;100328.19;;;3.01;100.00
31761;BME280;18335;51.486;7.562;2023-04-06T04:48:22;100328.59;;;3.07;100.00
31761;BME280;18335;51.486;7.562;2023-04-06T04:50:57;100324.88;;;2.97;100.00
31761;BME280;18335;51.486;7.562;2023-04-06T04:53:29;100327.09;;;3.03;100.00
31761;BME280;18335;51.486;7.562;2023-04-06T04:56:01;100320.50;;;3.07;100.00
31761;BME280;18335;51.486;7.562;2023-04-06T04:58:28;100324.00;;;2.97;100.00
31761;BME280;18335;51.486;7.562;2023-04-06T05:00:58;100326.38;;;3.01;100.00
31761;BME280;18335;51.486;7.562;2023-04-06T05:03:26;100321.66;;;2.92;100.00
31761;BME280;18335;51.486;7.562;2023-04-06T05:06:04;100327.06;;;2.92;100.00
31761;BME280;18335;51.486;7.562;2023-04-06T05:08:35;100329.75;;;2.92;100.00
31761;BME280;18335;51.486;7.562;2023-04-06T05:11:02;100318.28;;;2.77;100.00
31761;BME280;18335;51.486;7.562;2023-04-06T05:13:33;100324.81;;;2.86;100.00
31761;BME280;18335;51.486;7.562;2023-04-06T05:16:06;100323.28;;;2.71;100.00
31761;BME280;18335;51.486;7.562;2023-04-06T05:18:34;100316.06;;;2.71;100.00
31761;BME280;18335;51.486;7.562;2023-04-06T05:21:02;100321.44;;;2.71;100.00
31761;BME280;18335;51.486;7.562;2023-04-06T05:23:45;100322.22;;;2.85;100.00
31761;BME280;18335;51.486;7.562;2023-04-06T05:26:12;100317.19;;;2.80;100.00
31761;BME280;18335;51.486;7.562;2023-04-06T05:28:39;100319.88;;;2.80;100.00
31761;BME280;18335;51.486;7.562;2023-04-06T05:31:09;100326.47;;;2.76;100.00
31761;BME280;18335;51.486;7.562;2023-04-06T05:33:44;100320.63;;;2.82;100.00
31761;BME280;18335;51.486;7.562;2023-04-06T05:36:14;100321.66;;;2.92;100.00
31761;BME280;18335;51.486;7.562;2023-04-06T05:38:44;100320.41;;;2.85;100.00
31761;BME280;18335;51.486;7.562;2023-04-06T05:41:34;100317.47;;;2.88;100.00
31761;BME280;18335;51.486;7.562;2023-04-06T05:44:01;100317.47;;;2.88;100.00
31761;BME280;18335;51.486;7.562;2023-04-06T05:46:29;100315.91;;;2.97;100.00
31761;BME280;18335;51.486;7.562;2023-04-06T05:48:58;100321.72;;;3.03;100.00
31761;BME280;18335;51.486;7.562;2023-04-06T05:51:28;100324.19;;;3.06;100.00
31761;BME280;18335;51.486;7.562;2023-04-06T05:53:56;100323.56;;;3.14;100.00
31761;BME280;18335;51.486;7.562;2023-04-06T05:56:23;100328.22;;;3.12;100.00
31761;BME280;18335;51.486;7.562;2023-04-06T05:58:52;100328.66;;;3.29;100.00
31761;BME280;18335;51.486;7.562;2023-04-06T06:01:25;100327.47;;;3.33;100.00
31761;BME280;18335;51.486;7.562;2023-04-06T06:03:52;100320.56;;;3.29;100.00
31761;BME280;18335;51.486;7.562;2023-04-06T06:06:19;100321.06;;;3.34;100.00
31761;BME280;18335;51.486;7.562;2023-04-06T06:09:07;100318.69;;;3.54;100.00
31761;BME280;18335;51.486;7.562;2023-04-06T06:11:40;100327.28;;;3.59;100.00
31761;BME280;18335;51.486;7.562;2023-04-06T06:14:10;100321.53;;;3.74;100.00
31761;BME280;18335;51.486;7.562;2023-04-06T06:16:39;100324.88;;;3.89;100.00
31761;BME280;18335;51.486;7.562;2023-04-06T06:19:07;100318.25;;;3.82;100.00
31761;BME280;18335;51.486;7.562;2023-04-06T06:21:35;100320.09;;;3.81;100.00
31761;BME280;18335;51.486;7.562;2023-04-06T06:24:04;100321.44;;;4.09;100.00
31761;BME280;18335;51.486;7.562;2023-04-06T06:26:31;100314.94;;;4.23;100.00
31761;BME280;18335;51.486;7.562;2023-04-06T06:29:01;100313.22;;;4.33;100.00
31761;BME280;18335;51.486;7.562;2023-04-06T06:31:29;100320.44;;;4.43;100.00
31761;BME280;18335;51.486;7.562;2023-04-06T06:33:56;100310.50;;;4.44;100.00
31761;BME280;18335;51.486;7.562;2023-04-06T06:36:25;100319.94;;;4.61;100.00
31761;BME280;18335;51.486;7.562;2023-04-06T06:38:52;100316.22;;;4.73;100.00
31761;BME280;18335;51.486;7.562;2023-04-06T06:41:20;100314.59;;;4.81;100.00
31761;BME280;18335;51.486;7.562;2023-04-06T06:43:47;100317.41;;;4.91;100.00
31761;BME280;18335;51.486;7.562;2023-04-06T06:46:14;100317.50;;;5.00;100.00
31761;BME280;18335;51.486;7.562;2023-04-06T06:48:42;100320.03;;;5.13;100.00
31761;BME280;18335;51.486;7.562;2023-04-06T06:51:09;100313.69;;;5.24;100.00
31761;BME280;18335;51.486;7.562;2023-04-06T06:53:39;100314.50;;;5.35;100.00
31761;BME280;18335;51.486;7.562;2023-04-06T06:56:06;100302.50;;;5.28;100.00
31761;BME280;18335;51.486;7.562;2023-04-06T06:58:33;100306.66;;;5.53;100.00
31761;BME280;18335;51.486;7.562;2023-04-06T07:00:59;100311.88;;;5.66;100.00
31761;BME280;18335;51.486;7.562;2023-04-06T07:03:28;100310.22;;;5.74;100.00
31761;BME280;18335;51.486;7.562;2023-04-06T07:05:57;100291.25;;;5.85;100.00
31761;BME280;18335;51.486;7.562;2023-04-06T07:08:24;100303.28;;;6.02;100.00
31761;BME280;18335;51.486;7.562;2023-04-06T07:10:52;100298.84;;;6.01;100.00
31761;BME280;18335;51.486;7.562;2023-04-06T07:13:21;100300.78;;;6.20;100.00
31761;BME280;18335;51.486;7.562;2023-04-06T07:15:50;100303.00;;;6.35;100.00
31761;BME280;18335;51.486;7.562;2023-04-06T07:18:18;100300.59;;;6.42;100.00
31761;BME280;18335;51.486;7.562;2023-04-06T07:20:45;100295.34;;;6.50;100.00
31761;BME280;18335;51.486;7.562;2023-04-06T07:23:15;100295.28;;;6.90;100.00
31761;BME280;18335;51.486;7.562;2023-04-06T07:25:42;100289.69;;;6.82;100.00
31761;BME280;18335;51.486;7.562;2023-04-06T07:28:09;100291.72;;;7.08;99.48
31761;BME280;18335;51.486;7.562;2023-04-06T07:30:36;100285.31;;;7.09;96.32
31761;BME280;18335;51.486;7.562;2023-04-06T07:33:04;100291.56;;;7.29;92.00
31761;BME280;18335;51.486;7.562;2023-04-06T07:35:33;100293.59;;;7.46;94.27
31761;BME280;18335;51.486;7.562;2023-04-06T07:38:02;100278.97;;;7.47;95.00
31761;BME280;18335;51.486;7.562;2023-04-06T07:40:31;100289.84;;;7.57;89.30
31761;BME280;18335;51.486;7.562;2023-04-06T07:42:58;100279.25;;;7.63;90.22
31761;BME280;18335;51.486;7.562;2023-04-06T07:45:25;100277.06;;;7.76;86.86
31761;BME280;18335;51.486;7.562;2023-04-06T07:47:52;100276.66;;;7.62;83.26
31761;BME280;18335;51.486;7.562;2023-04-06T07:50:20;100276.78;;;7.79;87.30
31761;BME280;18335;51.486;7.562;2023-04-06T07:52:47;100272.88;;;7.92;84.44
31761;BME280;18335;51.486;7.562;2023-04-06T07:55:14;100278.84;;;8.05;81.31
31761;BME280;18335;51.486;7.562;2023-04-06T07:57:42;100269.34;;;8.18;83.35
31761;BME280;18335;51.486;7.562;2023-04-06T08:00:10;100266.47;;;8.29;78.34
31761;BME280;18335;51.486;7.562;2023-04-06T08:02:40;100264.16;;;8.25;77.95
31761;BME280;18335;51.486;7.562;2023-04-06T08:05:07;100261.22;;;8.46;83.35
31761;BME280;18335;51.486;7.562;2023-04-06T08:07:34;100265.59;;;8.39;76.53
31761;BME280;18335;51.486;7.562;2023-04-06T08:10:01;100261.84;;;8.40;74.14
31761;BME280;18335;51.486;7.562;2023-04-06T08:12:28;100262.63;;;8.77;77.90
31761;BME280;18335;51.486;7.562;2023-04-06T08:14:56;100264.41;;;8.68;80.09
31761;BME280;18335;51.486;7.562;2023-04-06T08:17:23;100266.97;;;8.70;85.40
31761;BME280;18335;51.486;7.562;2023-04-06T08:19:50;100259.22;;;8.93;78.52
31761;BME280;18335;51.486;7.562;2023-04-06T08:22:17;100267.53;;;9.09;83.16
31761;BME280;18335;51.486;7.562;2023-04-06T08:24:44;100271.50;;;9.14;81.01
31761;BME280;18335;51.486;7.562;2023-04-06T08:27:11;100267.69;;;9.25;77.46
31761;BME280;18335;51.486;7.562;2023-04-06T08:29:39;100266.53;;;9.27;77.73
31761;BME280;18335;51.486;7.562;2023-04-06T08:32:07;100273.25;;;9.41;72.35
31761;BME280;18335;51.486;7.562;2023-04-06T08:34:34;100269.25;;;9.71;77.02
31761;BME280;18335;51.486;7.562;2023-04-06T08:37:01;100267.78;;;9.76;72.70
31761;BME280;18335;51.486;7.562;2023-04-06T08:39:28;100266.69;;;9.95;66.40
31761;BME280;18335;51.486;7.562;2023-04-06T08:41:56;100269.22;;;10.14;70.63
31761;BME280;18335;51.486;7.562;2023-04-06T08:44:25;100265.16;;;10.18;69.11
31761;BME280;18335;51.486;7.562;2023-04-06T08:46:52;100265.41;;;10.33;70.18
31761;BME280;18335;51.486;7.562;2023-04-06T08:49:21;100251.13;;;10.39;66.16
31761;BME280;18335;51.486;7.562;2023-04-06T08:51:48;100253.53;;;10.42;63.09
31761;BME280;18335;51.486;7.562;2023-04-06T08:54:15;100257.34;;;10.57;65.73
31761;BME280;18335;51.486;7.562;2023-04-06T08:56:43;100249.41;;;10.46;64.26
31761;BME280;18335;51.486;7.562;2023-04-06T08:59:10;100246.38;;;10.49;59.28
31761;BME280;18335;51.486;7.562;2023-04-06T09:01:39;100250.16;;;10.64;60.59
31761;BME280;18335;51.486;7.562;2023-04-06T09:04:07;100254.19;;;10.36;56.45
31761;BME280;18335;51.486;7.562;2023-04-06T09:06:38;100256.50;;;10.65;56.77
31761;BME280;18335;51.486;7.562;2023-04-06T09:09:05;100252.47;;;10.93;57.63
31761;BME280;18335;51.486;7.562;2023-04-06T09:11:43;100252.81;;;10.98;64.19
31761;BME280;18335;51.486;7.562;2023-04-06T09:14:11;100246.88;;;11.10;58.56
31761;BME280;18335;51.486;7.562;2023-04-06T09:16:42;100241.78;;;11.32;58.61
31761;BME280;18335;51.486;7.562;2023-04-06T09:19:11;100240.91;;;11.23;52.64
31761;BME280;18335;51.486;7.562;2023-04-06T09:21:40;100246.22;;;11.17;52.00
31761;BME280;18335;51.486;7.562;2023-04-06T09:24:07;100244.13;;;11.27;53.95
31761;BME280;18335;51.486;7.562;2023-04-06T09:26:44;100240.72;;;11.33;52.17
31761;BME280;18335;51.486;7.562;2023-04-06T09:29:21;100234.53;;;12.03;52.44
31761;BME280;18335;51.486;7.562;2023-04-06T09:31:48;100231.13;;;12.01;50.78
31761;BME280;18335;51.486;7.562;2023-04-06T09:34:21;100234.38;;;11.89;49.88
31761;BME280;18335;51.486;7.562;2023-04-06T09:36:49;100219.63;;;12.14;48.98
31761;BME280;18335;51.486;7.562;2023-04-06T09:39:20;100216.53;;;12.56;54.62
31761;BME280;18335;51.486;7.562;2023-04-06T09:41:50;100209.81;;;12.66;50.94
31761;BME280;18335;51.486;7.562;2023-04-06T09:44:17;100223.13;;;12.39;49.24
31761;BME280;18335;51.486;7.562;2023-04-06T09:46:45;100218.03;;;12.36;46.49
31761;BME280;18335;51.486;7.562;2023-04-06T09:49:13;100222.63;;;12.35;46.33
31761;BME280;18335;51.486;7.562;2023-04-06T09:51:41;100219.34;;;13.01;47.84
31761;BME280;18335;51.486;7.562;2023-04-06T09:54:15;100221.25;;;13.01;45.91
31761;BME280;18335;51.486;7.562;2023-04-06T09:56:47;100215.97;;;13.22;44.37
31761;BME280;18335;51.486;7.562;2023-04-06T09:59:18;100214.28;;;13.44;42.92
31761;BME280;18335;51.486;7.562;2023-04-06T10:01:48;100214.50;;;13.11;42.62
31761;BME280;18335;51.486;7.562;2023-04-06T10:04:27;100216.28;;;13.27;41.20
31761;BME280;18335;51.486;7.562;2023-04-06T10:06:58;100211.03;;;13.17;43.04
31761;BME280;18335;51.486;7.562;2023-04-06T10:09:28;100209.84;;;13.57;44.71
31761;BME280;18335;51.486;7.562;2023-04-06T10:12:02;100209.63;;;13.44;44.52
31761;BME280;18335;51.486;7.562;2023-04-06T10:14:30;100207.94;;;13.43;40.68
31761;BME280;18335;51.486;7.562;2023-04-06T10:16:57;100211.31;;;13.08;42.99
31761;BME280;18335;51.486;7.562;2023-04-06T10:19:28;100206.22;;;13.42;40.72
31761;BME280;18335;51.486;7.562;2023-04-06T10:21:58;100208.28;;;13.92;40.75
31761;BME280;18335;51.486;7.562;2023-04-06T10:24:28;100203.47;;;13.79;39.37
31761;BME280;18335;51.486;7.562;2023-04-06T10:26:58;100204.78;;;13.83;39.21
31761;BME280;18335;51.486;7.562;2023-04-06T10:29:27;100212.50;;;13.65;39.27
31761;BME280;18335;51.486;7.562;2023-04-06T10:31:54;100212.56;;;13.43;37.83
31761;BME280;18335;51.486;7.562;2023-04-06T10:34:21;100204.78;;;13.32;37.77
31761;BME280;18335;51.486;7.562;2023-04-06T10:36:48;100200.38;;;13.60;38.77
31761;BME280;18335;51.486;7.562;2023-04-06T10:39:24;100198.91;;;13.86;39.78
31761;BME280;18335;51.486;7.562;2023-04-06T10:41:52;100199.66;;;13.80;39.75
31761;BME280;18335;51.486;7.562;2023-04-06T10:44:20;100195.06;;;14.10;38.84
31761;BME280;18335;51.486;7.562;2023-04-06T10:46:52;100201.16;;;13.68;38.75
31761;BME280;18335;51.486;7.562;2023-04-06T10:49:20;100190.63;;;14.09;39.42
31761;BME280;18335;51.486;7.562;2023-04-06T10:51:51;100192.41;;;14.31;40.86
31761;BME280;18335;51.486;7.562;2023-04-06T10:54:21;100188.31;;;14.57;39.06
31761;BME280;18335;51.486;7.562;2023-04-06T10:56:48;100183.41;;;14.23;38.52
31761;BME280;18335;51.486;7.562;2023-04-06T10:59:20;100196.38;;;13.85;40.14
31761;BME280;18335;51.486;7.562;2023-04-06T11:01:47;100186.59;;;13.68;39.58
31761;BME280;18335;51.486;7.562;2023-04-06T11:04:16;100190.47;;;13.59;38.58
31761;BME280;18335;51.486;7.562;2023-04-06T11:06:46;100184.44;;;13.93;39.19
31761;BME280;18335;51.486;7.562;2023-04-06T11:09:23;100177.06;;;14.22;39.67
31761;BME280;18335;51.486;7.562;2023-04-06T11:11:50;100178.31;;;14.20;39.07
31761;BME280;18335;51.486;7.562;2023-04-06T11:14:17;100180.19;;;14.19;39.11
31761;BME280;18335;51.486;7.562;2023-04-06T11:16:47;100183.00;;;14.55;40.14
31761;BME280;18335;51.486;7.562;2023-04-06T11:19:15;100179.91;;;14.44;40.12
31761;BME280;18335;51.486;7.562;2023-04-06T11:21:43;100179.19;;;14.71;38.63
31761;BME280;18335;51.486;7.562;2023-04-06T11:24:14;100178.38;;;14.91;41.15
31761;BME280;18335;51.486;7.562;2023-04-06T11:26:43;100173.69;;;14.71;38.91
31761;BME280;18335;51.486;7.562;2023-04-06T11:29:12;100177.03;;;14.87;41.64
31761;BME280;18335;51.486;7.562;2023-04-06T11:31:46;100165.28;;;14.93;37.89
31761;BME280;18335;51.486;7.562;2023-04-06T11:34:16;100171.38;;;14.89;38.67
31761;BME280;18335;51.486;7.562;2023-04-06T11:36:44;100164.38;;;14.86;40.39
31761;BME280;18335;51.486;7.562;2023-04-06T11:39:12;100161.91;;;14.56;36.77
31761;BME280;18335;51.486;7.562;2023-04-06T11:41:39;100172.88;;;14.56;37.66
31761;BME280;18335;51.486;7.562;2023-04-06T11:44:06;100160.41;;;14.53;37.88
31761;BME280;18335;51.486;7.562;2023-04-06T11:46:33;100165.84;;;14.68;38.54
31761;BME280;18335;51.486;7.562;2023-04-06T11:49:01;100160.38;;;15.10;39.08
31761;BME280;18335;51.486;7.562;2023-04-06T11:51:29;100160.75;;;14.65;37.45
31761;BME280;18335;51.486;7.562;2023-04-06T11:53:56;100157.44;;;14.69;38.36
31761;BME280;18335;51.486;7.562;2023-04-06T11:56:24;100153.53;;;14.64;37.65
31761;BME280;18335;51.486;7.562;2023-04-06T11:58:52;100150.31;;;14.75;39.12
31761;BME280;18335;51.486;7.562;2023-04-06T12:01:19;100149.50;;;14.60;38.99
31761;BME280;18335;51.486;7.562;2023-04-06T12:03:45;100144.88;;;14.60;39.68
31761;BME280;18335;51.486;7.562;2023-04-06T12:06:12;100147.22;;;14.63;38.93
31761;BME280;18335;51.486;7.562;2023-04-06T12:08:40;100151.75;;;14.92;39.62
31761;BME280;18335;51.486;7.562;2023-04-06T12:11:07;100145.19;;;14.72;38.03
31761;BME280;18335;51.486;7.562;2023-04-06T12:13:34;100142.34;;;14.44;38.27
31761;BME280;18335;51.486;7.562;2023-04-06T12:16:00;100147.34;;;15.19;38.71
31761;BME280;18335;51.486;7.562;2023-04-06T12:18:29;100144.66;;;14.62;37.89
31761;BME280;18335;51.486;7.562;2023-04-06T12:20:56;100145.09;;;15.01;38.33
31761;BME280;18335;51.486;7.562;2023-04-06T12:23:23;100142.31;;;14.80;39.17
31761;BME280;18335;51.486;7.562;2023-04-06T12:25:51;100143.03;;;14.67;39.26
31761;BME280;18335;51.486;7.562;2023-04-06T12:28:18;100144.28;;;15.07;40.80
31761;BME280;18335;51.486;7.562;2023-04-06T12:30:48;100137.00;;;14.78;39.71
31761;BME280;18335;51.486;7.562;2023-04-06T12:33:15;100128.44;;;15.09;39.52
31761;BME280;18335;51.486;7.562;2023-04-06T12:35:42;100128.31;;;15.17;38.66
31761;BME280;18335;51.486;7.562;2023-04-06T12:38:09;100135.84;;;15.09;39.32
31761;BME280;18335;51.486;7.562;2023-04-06T12:40:36;100138.25;;;14.97;40.19
31761;BME280;18335;51.486;7.562;2023-04-06T12:43:05;100130.09;;;14.82;40.27
31761;BME280;18335;51.486;7.562;2023-04-06T12:45:32;100126.28;;;15.26;39.65
31761;BME280;18335;51.486;7.562;2023-04-06T12:47:59;100121.94;;;15.38;38.95
31761;BME280;18335;51.486;7.562;2023-04-06T12:50:26;100130.03;;;15.67;39.39
31761;BME280;18335;51.486;7.562;2023-04-06T12:52:53;100121.97;;;16.00;40.78
31761;BME280;18335;51.486;7.562;2023-04-06T12:55:20;100130.63;;;15.97;39.09
31761;BME280;18335;51.486;7.562;2023-04-06T12:57:47;100119.19;;;15.93;39.05
31761;BME280;18335;51.486;7.562;2023-04-06T13:00:16;100121.09;;;15.37;38.80